createdAt,value
2018-04-19T06:04:38.515Z,55.42
2018-04-19T06:07:04.114Z,53.21
2018-04-19T06:09:29.810Z,53.68
2018-04-19T06:11:55.376Z,53.79
2018-04-19T06:14:21.113Z,53.96
2018-04-19T06:16:46.764Z,53.38
2018-04-19T06:19:12.472Z,53.46
2018-04-19T06:21:38.019Z,53.85
2018-04-19T06:24:03.790Z,53.62
2018-04-19T06:26:29.337Z,53.21
2018-04-19T06:28:55.076Z,52.26
2018-04-19T06:31:20.679Z,52.46
2018-04-19T06:33:46.579Z,52.67
2018-04-19T06:36:12.240Z,52.91
2018-04-19T06:38:37.759Z,52.25
2018-04-19T06:41:03.527Z,52.04
2018-04-19T06:43:29.059Z,50.96
2018-04-19T06:45:54.968Z,50.52
2018-04-19T06:48:20.527Z,49.84
2018-04-19T06:50:46.281Z,49.60
2018-04-19T06:53:11.842Z,49.11
2018-04-19T06:55:37.583Z,49.54
2018-04-19T06:58:03.121Z,49.26
2018-04-19T07:00:28.842Z,48.96
2018-04-19T07:02:54.435Z,48.60
2018-04-19T07:05:20.212Z,48.72
2018-04-19T07:07:45.769Z,48.44
2018-04-19T07:10:11.479Z,47.73
2018-04-19T07:12:37.064Z,47.75
2018-04-19T07:15:02.605Z,47.05
2018-04-19T07:17:28.314Z,47.25
2018-04-19T07:19:53.872Z,46.72
2018-04-19T07:22:19.634Z,46.56
2018-04-19T07:24:45.207Z,46.53
2018-04-19T07:27:10.963Z,46.80
2018-04-19T07:29:36.509Z,46.56
2018-04-19T07:32:02.341Z,45.96
2018-04-19T07:34:27.851Z,45.63
2018-04-19T07:36:53.572Z,45.62
2018-04-19T07:39:19.117Z,45.23
2018-04-19T07:41:44.922Z,45.04
2018-04-19T07:44:10.481Z,45.25
2018-04-19T07:46:36.083Z,44.99
2018-04-19T07:49:01.918Z,44.83
2018-04-19T07:51:27.489Z,44.91
2018-04-19T07:53:53.268Z,44.84
2018-04-19T07:56:18.870Z,44.83
2018-04-19T07:58:44.752Z,44.63
2018-04-19T08:01:10.388Z,44.54
2018-04-19T08:03:36.104Z,44.38
2018-04-19T08:06:01.648Z,44.20
2018-04-19T08:08:27.435Z,43.95
2018-04-19T08:10:52.991Z,44.09
2018-04-19T08:13:18.716Z,43.54
2018-04-19T08:15:44.250Z,43.58
2018-04-19T08:18:09.947Z,43.51
2018-04-19T08:20:35.489Z,42.89
2018-04-19T08:23:01.218Z,43.28
2018-04-19T08:25:26.834Z,43.04
2018-04-19T08:27:52.502Z,43.07
2018-04-19T08:30:18.087Z,42.10
2018-04-19T08:32:43.953Z,41.88
2018-04-19T08:35:09.550Z,41.88
2018-04-19T08:37:35.338Z,42.07
2018-04-19T08:40:00.870Z,41.40
2018-04-19T08:42:26.537Z,40.54
2018-04-19T08:44:52.097Z,40.36
2018-04-19T08:47:18.080Z,40.00
2018-04-19T08:49:43.638Z,39.70
2018-04-19T08:52:09.225Z,39.81
2018-04-19T08:54:35.016Z,39.79
2018-04-19T08:57:00.584Z,39.13
2018-04-19T08:59:26.347Z,39.47
2018-04-19T09:01:51.936Z,39.99
2018-04-19T09:04:17.621Z,39.85
2018-04-19T09:06:43.172Z,39.90
2018-04-19T09:09:08.950Z,39.98
2018-04-19T09:11:34.509Z,39.68
2018-04-19T09:14:00.305Z,39.15
2018-04-19T09:16:25.902Z,38.94
2018-04-19T09:18:51.666Z,37.17
2018-04-19T09:21:17.218Z,37.85
2018-04-19T09:23:42.961Z,36.73
2018-04-19T09:26:08.559Z,33.72
2018-04-19T09:28:34.259Z,32.81
2018-04-19T09:30:59.803Z,30.69
2018-04-19T09:33:25.522Z,30.89
2018-04-19T09:35:51.077Z,29.35
2018-04-19T09:38:17.062Z,26.76
2018-04-19T09:40:42.822Z,26.40
2018-04-19T09:43:08.365Z,26.44
2018-04-19T09:45:34.069Z,25.93
2018-04-19T09:47:59.611Z,25.23
2018-04-19T09:50:25.317Z,25.42
2018-04-19T09:52:50.861Z,25.47
2018-04-19T09:55:16.663Z,25.36
2018-04-19T09:58:07.247Z,25.13
2018-04-19T10:00:33.011Z,24.80
2018-04-19T10:02:58.587Z,24.41
2018-04-19T10:05:24.368Z,24.38
2018-04-19T10:07:49.934Z,24.08
2018-04-19T10:10:15.722Z,24.76
2018-04-19T10:15:21.664Z,24.30
2018-04-19T10:17:47.213Z,24.27
2018-04-19T10:20:12.970Z,24.14
2018-04-19T10:22:38.577Z,24.04
2018-04-19T10:25:04.330Z,24.03
2018-04-19T10:27:29.923Z,23.95
2018-04-19T10:29:55.545Z,24.00
2018-04-19T10:32:21.107Z,23.55
2018-04-19T10:34:46.934Z,23.55
2018-04-19T10:37:12.498Z,24.13
2018-04-19T10:39:38.225Z,24.00
2018-04-19T10:42:03.782Z,23.95
2018-04-19T10:44:29.527Z,23.96
2018-04-19T10:46:55.130Z,23.54
2018-04-19T10:49:20.891Z,23.31
2018-04-19T10:51:46.416Z,23.84
2018-04-19T10:54:12.201Z,24.43
2018-04-19T10:56:37.732Z,23.88
2018-04-19T10:59:03.493Z,23.85
2018-04-19T11:01:29.046Z,24.08
2018-04-19T11:03:54.739Z,23.85
2018-04-19T11:06:20.272Z,23.05
2018-04-19T11:08:46.005Z,23.73
2018-04-19T11:11:11.546Z,23.83
2018-04-19T11:13:37.384Z,23.79
2018-04-19T11:16:02.954Z,23.83
2018-04-19T11:18:28.721Z,23.44
2018-04-19T11:20:54.257Z,22.74
2018-04-19T11:23:19.956Z,23.04
2018-04-19T11:25:45.504Z,22.83
2018-04-19T11:28:11.215Z,22.35
2018-04-19T11:30:36.755Z,22.44
2018-04-19T11:33:02.361Z,22.35
2018-04-19T11:35:28.092Z,22.35
2018-04-19T11:37:53.701Z,21.89
2018-04-19T11:40:19.453Z,21.72
2018-04-19T11:42:45.008Z,21.75
2018-04-19T11:45:10.927Z,21.99
2018-04-19T11:47:36.505Z,22.01
2018-04-19T11:50:02.268Z,21.37
2018-04-19T11:52:27.816Z,21.50
2018-04-19T11:54:53.575Z,21.69
2018-04-19T11:57:19.128Z,21.43
2018-04-19T11:59:44.823Z,21.30
2018-04-19T12:02:10.427Z,21.41
2018-04-19T12:04:36.120Z,21.04
2018-04-19T12:07:01.668Z,20.85
2018-04-19T12:09:27.390Z,21.30
2018-04-19T12:11:52.937Z,21.53
2018-04-19T12:14:18.779Z,20.80
2018-04-19T12:16:44.385Z,20.55
2018-04-19T12:19:10.111Z,20.54
2018-04-19T12:21:35.638Z,20.73
2018-04-19T12:24:01.336Z,20.96
2018-04-19T12:26:26.883Z,20.49
2018-04-19T12:28:52.690Z,20.71
2018-04-19T12:31:18.246Z,20.31
2018-04-19T12:33:43.944Z,19.61
2018-04-19T12:36:09.488Z,19.80
2018-04-19T12:38:35.202Z,19.99
2018-04-19T12:41:01.304Z,19.87
2018-04-19T12:43:27.083Z,19.96
2018-04-19T12:45:52.616Z,19.81
2018-04-19T12:48:18.421Z,19.55
2018-04-19T12:50:44.023Z,19.00
2018-04-19T12:53:09.844Z,18.90
2018-04-19T12:55:35.387Z,18.70
2018-04-19T12:58:01.484Z,18.93
2018-04-19T13:00:27.088Z,18.73
2018-04-19T13:02:52.644Z,18.64
2018-04-19T13:05:18.582Z,19.08
2018-04-19T13:07:44.148Z,19.34
2018-04-19T13:10:09.828Z,18.97
2018-04-19T13:12:35.382Z,18.90
2018-04-19T13:15:01.168Z,18.89
2018-04-19T13:17:26.706Z,19.07
2018-04-19T13:19:52.582Z,18.62
2018-04-19T13:22:18.145Z,18.91
2018-04-19T13:24:43.920Z,18.17
2018-04-19T13:27:09.530Z,18.19
2018-04-19T13:29:35.300Z,17.82
2018-04-19T13:32:00.836Z,18.00
2018-04-19T13:34:26.539Z,18.27
2018-04-19T13:36:52.097Z,18.13
2018-04-19T13:39:17.855Z,18.60
2018-04-19T13:41:43.401Z,17.79
2018-04-19T13:44:09.196Z,17.60
2018-04-19T13:46:34.777Z,18.33
2018-04-19T13:49:00.362Z,17.66
2018-04-19T13:51:28.175Z,17.61
2018-04-19T13:53:53.711Z,17.46
2018-04-19T13:56:19.430Z,17.17
2018-04-19T13:58:44.980Z,16.88
2018-04-19T14:01:10.729Z,17.07
2018-04-19T14:03:36.274Z,17.34
2018-04-19T14:06:02.038Z,16.38
2018-04-19T14:08:27.602Z,16.08
2018-04-19T14:10:53.142Z,15.66
2018-04-19T14:13:18.953Z,16.25
2018-04-19T14:15:44.451Z,15.92
2018-04-19T14:18:10.140Z,16.40
2018-04-19T14:20:35.675Z,15.97
2018-04-19T14:23:01.412Z,15.25
2018-04-19T14:25:26.978Z,15.86
2018-04-19T14:27:52.777Z,15.99
2018-04-19T14:30:18.323Z,16.45
2018-04-19T14:32:45.148Z,16.06
2018-04-19T14:35:10.702Z,15.88
2018-04-19T14:37:36.388Z,15.85
2018-04-19T14:40:01.979Z,15.80
2018-04-19T14:42:27.752Z,16.31
2018-04-19T14:44:53.584Z,16.75
2018-04-19T14:47:19.316Z,17.17
2018-04-19T14:49:44.880Z,16.88
2018-04-19T14:52:10.571Z,16.80
2018-04-19T14:54:36.111Z,15.85
2018-04-19T14:57:01.803Z,15.41
2018-04-19T14:59:27.371Z,15.58
2018-04-19T15:01:53.180Z,15.78
2018-04-19T15:04:18.729Z,15.72
2018-04-19T15:06:44.323Z,15.51
2018-04-19T15:09:09.980Z,15.83
2018-04-19T15:11:35.519Z,15.71
2018-04-19T15:14:01.298Z,15.51
2018-04-19T15:16:26.849Z,15.00
2018-04-19T15:18:52.551Z,15.40
2018-04-19T15:21:18.112Z,15.19
2018-04-19T15:23:43.775Z,14.63
2018-04-19T15:26:09.324Z,15.20
2018-04-19T15:28:35.053Z,14.38
2018-04-19T15:31:00.652Z,15.08
2018-04-19T15:33:26.418Z,14.54
2018-04-19T15:35:51.958Z,14.19
2018-04-19T15:38:17.760Z,14.73
2018-04-19T15:40:43.295Z,15.97
2018-04-19T15:43:09.021Z,15.97
2018-04-19T15:45:34.620Z,16.45
2018-04-19T15:48:00.594Z,16.83
2018-04-19T15:50:26.134Z,16.85
2018-04-19T15:52:51.962Z,17.03
2018-04-19T15:55:17.520Z,17.11
2018-04-19T15:57:43.252Z,17.22
2018-04-19T16:00:08.802Z,17.19
2018-04-19T16:02:34.491Z,17.39
2018-04-19T16:05:00.069Z,17.63
2018-04-19T16:07:25.789Z,18.78
2018-04-19T16:09:51.346Z,18.08
2018-04-19T16:12:17.045Z,18.70
2018-04-19T16:14:42.585Z,17.95
2018-04-19T16:17:08.203Z,18.00
2018-04-19T16:19:34.017Z,17.87
2018-04-19T16:21:59.563Z,17.81
2018-04-19T16:24:25.440Z,18.02
2018-04-19T16:26:51.005Z,18.41
2018-04-19T16:29:16.830Z,18.03
2018-04-19T16:31:42.375Z,18.27
2018-04-19T16:34:08.103Z,18.74
2018-04-19T16:36:33.663Z,18.43
2018-04-19T16:38:59.430Z,18.43
2018-04-19T16:41:25.018Z,18.82
2018-04-19T16:43:50.857Z,18.31
2018-04-19T16:46:16.393Z,18.34
2018-04-19T16:48:42.128Z,18.21
2018-04-19T16:51:07.671Z,18.09
2018-04-19T16:53:33.397Z,18.01
2018-04-19T16:55:58.945Z,18.93
2018-04-19T16:58:24.704Z,18.35
2018-04-19T17:00:50.266Z,18.77
2018-04-19T17:03:16.051Z,19.59
2018-04-19T17:05:41.660Z,19.62
2018-04-19T17:08:07.341Z,19.72
2018-04-19T17:10:32.913Z,20.12
2018-04-19T17:12:58.442Z,19.99
2018-04-19T17:15:24.140Z,20.03
2018-04-19T17:17:49.699Z,20.15
2018-04-19T17:20:15.355Z,19.80
2018-04-19T17:22:40.899Z,19.65
2018-04-19T17:25:06.710Z,19.91
2018-04-19T17:27:32.257Z,20.04
2018-04-19T17:29:58.002Z,20.10
2018-04-19T17:32:23.598Z,20.26
2018-04-19T17:34:49.343Z,20.25
2018-04-19T17:37:14.947Z,20.34
2018-04-19T17:39:40.996Z,19.99
2018-04-19T17:42:06.545Z,20.67
2018-04-19T17:44:32.244Z,20.53
2018-04-19T17:46:57.769Z,20.40
2018-04-19T17:49:23.515Z,20.67
2018-04-19T17:51:49.166Z,20.91
2018-04-19T17:54:14.948Z,20.92
2018-04-19T17:56:40.571Z,21.58
2018-04-19T17:59:06.432Z,22.04
2018-04-19T18:01:31.986Z,21.92
2018-04-19T18:03:57.684Z,22.20
2018-04-19T18:06:23.242Z,21.76
2018-04-19T18:08:49.140Z,21.56
2018-04-19T18:11:14.690Z,21.66
2018-04-19T18:13:40.491Z,21.92
2018-04-19T18:16:06.053Z,21.97
2018-04-19T18:18:31.890Z,22.72
2018-04-19T18:20:57.440Z,22.47
2018-04-19T18:23:23.199Z,23.38
2018-04-19T18:25:48.810Z,23.16
2018-04-19T18:28:14.758Z,23.45
2018-04-19T18:30:40.303Z,23.77
2018-04-19T18:33:06.007Z,24.17
2018-04-19T18:35:31.585Z,24.13
2018-04-19T18:37:57.365Z,24.31
2018-04-19T18:40:22.903Z,24.10
2018-04-19T18:42:48.459Z,24.55
2018-04-19T18:45:14.451Z,24.47
2018-04-19T18:47:39.994Z,24.94
2018-04-19T18:50:05.806Z,25.06
2018-04-19T18:52:31.414Z,24.82
2018-04-19T18:54:57.115Z,25.02
2018-04-19T18:57:22.661Z,25.03
2018-04-19T18:59:48.421Z,25.40
2018-04-19T19:02:13.981Z,25.39
2018-04-19T19:04:39.768Z,25.36
2018-04-19T19:07:05.364Z,25.21
2018-04-19T19:09:31.118Z,25.66
2018-04-19T19:11:56.677Z,25.78
2018-04-19T19:14:22.403Z,26.02
2018-04-19T19:16:47.956Z,26.45
2018-04-19T19:19:51.303Z,26.54
2018-04-19T19:22:16.850Z,26.78
2018-04-19T19:24:42.579Z,26.89
2018-04-19T19:27:08.134Z,27.14
2018-04-19T19:29:33.923Z,27.05
2018-04-19T19:31:59.475Z,27.36
2018-04-19T19:34:25.026Z,27.34
2018-04-19T19:36:50.781Z,27.71
2018-04-19T19:39:16.355Z,27.98
2018-04-19T19:41:42.046Z,28.22
2018-04-19T19:44:07.601Z,28.24
2018-04-19T19:46:33.305Z,28.42
2018-04-19T19:48:58.841Z,28.71
2018-04-19T19:51:24.555Z,28.95
2018-04-19T19:53:50.099Z,29.04
2018-04-19T19:56:15.800Z,29.16
2018-04-19T19:58:41.349Z,29.07
2018-04-19T20:01:07.053Z,29.17
2018-04-19T20:03:32.597Z,29.56
2018-04-19T20:05:58.419Z,29.40
2018-04-19T20:08:23.959Z,29.38
2018-04-19T20:10:49.765Z,29.51
2018-04-19T20:13:15.371Z,29.31
2018-04-19T20:15:40.914Z,29.17
2018-04-19T20:18:06.697Z,29.69
2018-04-19T20:20:32.243Z,29.77
2018-04-19T20:22:58.029Z,29.68
2018-04-19T20:25:23.591Z,29.51
2018-04-19T20:27:49.511Z,29.59
2018-04-19T20:30:15.111Z,29.65
2018-04-19T20:35:12.715Z,30.04
2018-04-19T20:37:38.516Z,30.00
2018-04-19T20:40:04.080Z,30.24
2018-04-19T20:42:29.762Z,30.17
2018-04-19T20:44:55.317Z,30.51
2018-04-19T20:47:21.084Z,30.55
2018-04-19T20:49:46.647Z,30.62
2018-04-19T20:52:12.373Z,30.55
2018-04-19T20:54:37.938Z,30.65
2018-04-19T20:57:03.779Z,30.66
2018-04-19T20:59:29.321Z,30.70
2018-04-19T21:01:55.134Z,31.06
2018-04-19T21:04:20.690Z,30.77
2018-04-19T21:06:46.567Z,30.89
2018-04-19T21:09:12.134Z,31.49
2018-04-19T21:11:37.686Z,31.79
2018-04-19T21:14:03.416Z,31.79
2018-04-19T21:16:30.654Z,32.20
2018-04-19T21:18:56.428Z,32.51
2018-04-19T21:21:22.909Z,32.72
2018-04-19T21:23:48.732Z,33.05
2018-04-19T21:26:14.336Z,33.32
2018-04-19T21:28:40.025Z,33.65
2018-04-19T21:31:05.576Z,33.94
2018-04-19T21:33:31.288Z,33.89
2018-04-19T21:35:56.876Z,34.02
2018-04-19T21:38:22.657Z,34.07
2018-04-19T21:40:48.236Z,34.16
2018-04-19T21:43:14.004Z,34.32
2018-04-19T21:45:39.550Z,34.54
2018-04-19T21:48:05.253Z,34.95
2018-04-19T21:50:30.792Z,34.56
2018-04-19T21:52:56.388Z,34.36
2018-04-19T21:55:22.108Z,34.46
2018-04-19T21:57:47.922Z,34.58
